Terminal Aerodrome Forecast
Issued by NWS

Home | Current Version | Previous Version | Graphics & Text | Print | Product List | Glossary On
Versions: 1 2 3 4 5 6 7 8 9 10 11 12 13 14 15
000
FTUS43 KBIS 181400 AAA
TAFJMS
TAF AMD
KJMS 181456Z 1815/1912 23010KT P6SM OVC006
     FM181800 20012KT P6SM SCT006 OVC012
     FM182000 17015KT P6SM BKN015
     FM182300 18009KT P6SM SCT035 SCT140
     FM191100 24008KT P6SM SCT120=

USA.gov is the U.S. government's official web portal to all federal, state and local government web resources and services.